sensor_id;sensor_type;location;lat;lon;timestamp;P1;durP1;ratioP1;P2;durP2;ratioP2
32333;SDS011;18810;53.040;8.850;2023-10-08T00:01:15;7.65;;;4.30;;
32333;SDS011;18810;53.040;8.850;2023-10-08T00:03:41;6.43;;;4.20;;
32333;SDS011;18810;53.040;8.850;2023-10-08T00:06:13;6.45;;;4.63;;
32333;SDS011;18810;53.040;8.850;2023-10-08T00:08:40;8.02;;;4.82;;
32333;SDS011;18810;53.040;8.850;2023-10-08T00:11:05;14.10;;;6.05;;
32333;SDS011;18810;53.040;8.850;2023-10-08T00:13:32;11.27;;;4.85;;
32333;SDS011;18810;53.040;8.850;2023-10-08T00:16:08;10.93;;;5.93;;
32333;SDS011;18810;53.040;8.850;2023-10-08T00:18:35;17.92;;;7.20;;
32333;SDS011;18810;53.040;8.850;2023-10-08T00:21:07;11.88;;;6.38;;
32333;SDS011;18810;53.040;8.850;2023-10-08T00:23:35;10.30;;;6.70;;
32333;SDS011;18810;53.040;8.850;2023-10-08T00:26:08;8.07;;;6.05;;
32333;SDS011;18810;53.040;8.850;2023-10-08T00:28:34;11.30;;;6.28;;
32333;SDS011;18810;53.040;8.850;2023-10-08T00:31:03;10.05;;;5.65;;
32333;SDS011;18810;53.040;8.850;2023-10-08T00:33:31;6.53;;;4.22;;
32333;SDS011;18810;53.040;8.850;2023-10-08T00:35:57;7.10;;;4.60;;
32333;SDS011;18810;53.040;8.850;2023-10-08T00:38:23;7.13;;;4.15;;
32333;SDS011;18810;53.040;8.850;2023-10-08T00:40:57;7.72;;;4.18;;
32333;SDS011;18810;53.040;8.850;2023-10-08T00:43:32;7.65;;;3.58;;
32333;SDS011;18810;53.040;8.850;2023-10-08T00:46:03;7.70;;;4.28;;
32333;SDS011;18810;53.040;8.850;2023-10-08T00:48:30;6.50;;;4.37;;
32333;SDS011;18810;53.040;8.850;2023-10-08T00:51:04;6.10;;;3.85;;
32333;SDS011;18810;53.040;8.850;2023-10-08T00:56:30;4.63;;;3.30;;
32333;SDS011;18810;53.040;8.850;2023-10-08T00:59:16;8.15;;;3.58;;
32333;SDS011;18810;53.040;8.850;2023-10-08T01:01:45;5.50;;;3.13;;
32333;SDS011;18810;53.040;8.850;2023-10-08T01:04:20;7.68;;;3.45;;
32333;SDS011;18810;53.040;8.850;2023-10-08T01:06:49;9.40;;;3.38;;
32333;SDS011;18810;53.040;8.850;2023-10-08T01:09:20;6.88;;;3.40;;
32333;SDS011;18810;53.040;8.850;2023-10-08T01:12:08;6.63;;;2.75;;
32333;SDS011;18810;53.040;8.850;2023-10-08T01:14:37;4.80;;;3.00;;
32333;SDS011;18810;53.040;8.850;2023-10-08T01:17:07;6.82;;;2.90;;
32333;SDS011;18810;53.040;8.850;2023-10-08T01:19:44;6.35;;;2.72;;
32333;SDS011;18810;53.040;8.850;2023-10-08T01:22:15;5.78;;;2.85;;
32333;SDS011;18810;53.040;8.850;2023-10-08T01:24:43;6.00;;;3.00;;
32333;SDS011;18810;53.040;8.850;2023-10-08T01:27:13;7.20;;;3.17;;
32333;SDS011;18810;53.040;8.850;2023-10-08T01:29:46;11.00;;;2.88;;
32333;SDS011;18810;53.040;8.850;2023-10-08T01:32:15;4.72;;;2.40;;
32333;SDS011;18810;53.040;8.850;2023-10-08T01:34:42;8.40;;;3.20;;
32333;SDS011;18810;53.040;8.850;2023-10-08T01:37:17;6.22;;;2.63;;
32333;SDS011;18810;53.040;8.850;2023-10-08T01:39:47;5.85;;;2.92;;
32333;SDS011;18810;53.040;8.850;2023-10-08T01:42:15;9.13;;;2.80;;
32333;SDS011;18810;53.040;8.850;2023-10-08T01:44:46;5.93;;;2.72;;
32333;SDS011;18810;53.040;8.850;2023-10-08T01:49:45;5.20;;;2.30;;
32333;SDS011;18810;53.040;8.850;2023-10-08T01:52:11;5.60;;;2.40;;
32333;SDS011;18810;53.040;8.850;2023-10-08T01:54:50;6.97;;;2.83;;
32333;SDS011;18810;53.040;8.850;2023-10-08T01:57:19;9.07;;;2.40;;
32333;SDS011;18810;53.040;8.850;2023-10-08T01:59:44;7.93;;;2.40;;
32333;SDS011;18810;53.040;8.850;2023-10-08T02:02:10;6.28;;;2.85;;
32333;SDS011;18810;53.040;8.850;2023-10-08T02:04:37;5.40;;;2.53;;
32333;SDS011;18810;53.040;8.850;2023-10-08T02:07:05;8.10;;;2.50;;
32333;SDS011;18810;53.040;8.850;2023-10-08T02:09:37;8.57;;;2.92;;
32333;SDS011;18810;53.040;8.850;2023-10-08T02:12:06;6.85;;;2.35;;
32333;SDS011;18810;53.040;8.850;2023-10-08T02:14:33;8.00;;;2.85;;
32333;SDS011;18810;53.040;8.850;2023-10-08T02:17:00;8.55;;;2.45;;
32333;SDS011;18810;53.040;8.850;2023-10-08T02:19:31;7.03;;;2.92;;
32333;SDS011;18810;53.040;8.850;2023-10-08T02:21:58;6.88;;;2.22;;
32333;SDS011;18810;53.040;8.850;2023-10-08T02:24:24;6.53;;;2.80;;
32333;SDS011;18810;53.040;8.850;2023-10-08T02:26:54;7.75;;;3.03;;
32333;SDS011;18810;53.040;8.850;2023-10-08T02:29:25;9.30;;;3.08;;
32333;SDS011;18810;53.040;8.850;2023-10-08T02:31:55;8.05;;;3.85;;
32333;SDS011;18810;53.040;8.850;2023-10-08T02:34:24;10.05;;;3.35;;
32333;SDS011;18810;53.040;8.850;2023-10-08T02:36:50;7.72;;;3.63;;
32333;SDS011;18810;53.040;8.850;2023-10-08T02:39:16;7.57;;;3.80;;
32333;SDS011;18810;53.040;8.850;2023-10-08T02:41:46;9.18;;;3.90;;
32333;SDS011;18810;53.040;8.850;2023-10-08T02:44:13;9.05;;;3.85;;
32333;SDS011;18810;53.040;8.850;2023-10-08T02:46:43;6.57;;;3.22;;
32333;SDS011;18810;53.040;8.850;2023-10-08T02:49:12;9.32;;;4.05;;
32333;SDS011;18810;53.040;8.850;2023-10-08T02:51:44;8.38;;;4.45;;
32333;SDS011;18810;53.040;8.850;2023-10-08T02:54:10;11.23;;;4.90;;
32333;SDS011;18810;53.040;8.850;2023-10-08T02:57:02;11.02;;;5.07;;
32333;SDS011;18810;53.040;8.850;2023-10-08T02:59:29;10.38;;;4.88;;
32333;SDS011;18810;53.040;8.850;2023-10-08T03:02:05;10.70;;;5.45;;
32333;SDS011;18810;53.040;8.850;2023-10-08T03:04:39;11.48;;;5.03;;
32333;SDS011;18810;53.040;8.850;2023-10-08T03:07:14;9.93;;;5.70;;
32333;SDS011;18810;53.040;8.850;2023-10-08T03:09:52;9.50;;;5.03;;
32333;SDS011;18810;53.040;8.850;2023-10-08T03:12:41;11.25;;;5.88;;
32333;SDS011;18810;53.040;8.850;2023-10-08T03:15:08;15.40;;;6.00;;
32333;SDS011;18810;53.040;8.850;2023-10-08T03:17:52;10.90;;;5.82;;
32333;SDS011;18810;53.040;8.850;2023-10-08T03:20:19;10.05;;;5.93;;
32333;SDS011;18810;53.040;8.850;2023-10-08T03:23:14;12.30;;;6.78;;
32333;SDS011;18810;53.040;8.850;2023-10-08T03:25:58;11.57;;;6.03;;
32333;SDS011;18810;53.040;8.850;2023-10-08T03:28:42;13.52;;;6.45;;
32333;SDS011;18810;53.040;8.850;2023-10-08T03:31:08;11.85;;;6.57;;
32333;SDS011;18810;53.040;8.850;2023-10-08T03:33:41;14.90;;;6.35;;
32333;SDS011;18810;53.040;8.850;2023-10-08T03:36:08;11.75;;;6.68;;
32333;SDS011;18810;53.040;8.850;2023-10-08T03:41:15;13.13;;;6.75;;
32333;SDS011;18810;53.040;8.850;2023-10-08T03:43:44;14.95;;;7.40;;
32333;SDS011;18810;53.040;8.850;2023-10-08T03:46:29;16.63;;;8.00;;
32333;SDS011;18810;53.040;8.850;2023-10-08T03:48:57;13.50;;;7.70;;
32333;SDS011;18810;53.040;8.850;2023-10-08T03:51:29;16.05;;;7.97;;
32333;SDS011;18810;53.040;8.850;2023-10-08T03:54:00;11.02;;;7.13;;
32333;SDS011;18810;53.040;8.850;2023-10-08T03:56:34;14.85;;;7.57;;
32333;SDS011;18810;53.040;8.850;2023-10-08T03:59:05;13.32;;;6.60;;
32333;SDS011;18810;53.040;8.850;2023-10-08T04:01:42;16.90;;;7.35;;
32333;SDS011;18810;53.040;8.850;2023-10-08T04:04:09;15.38;;;7.50;;
32333;SDS011;18810;53.040;8.850;2023-10-08T04:06:39;13.93;;;7.50;;
32333;SDS011;18810;53.040;8.850;2023-10-08T04:09:13;16.88;;;7.65;;
32333;SDS011;18810;53.040;8.850;2023-10-08T04:11:45;16.88;;;7.60;;
32333;SDS011;18810;53.040;8.850;2023-10-08T04:14:15;11.15;;;6.43;;
32333;SDS011;18810;53.040;8.850;2023-10-08T04:16:43;14.20;;;6.78;;
32333;SDS011;18810;53.040;8.850;2023-10-08T04:19:10;17.30;;;7.47;;
32333;SDS011;18810;53.040;8.850;2023-10-08T04:21:36;14.52;;;7.07;;
32333;SDS011;18810;53.040;8.850;2023-10-08T04:24:02;16.00;;;7.25;;
32333;SDS011;18810;53.040;8.850;2023-10-08T04:26:32;12.20;;;6.40;;
32333;SDS011;18810;53.040;8.850;2023-10-08T04:28:58;14.07;;;6.80;;
32333;SDS011;18810;53.040;8.850;2023-10-08T04:31:28;14.05;;;6.53;;
32333;SDS011;18810;53.040;8.850;2023-10-08T04:34:23;13.82;;;6.32;;
32333;SDS011;18810;53.040;8.850;2023-10-08T04:36:49;11.10;;;5.68;;
32333;SDS011;18810;53.040;8.850;2023-10-08T04:39:23;10.65;;;5.93;;
32333;SDS011;18810;53.040;8.850;2023-10-08T04:41:57;12.95;;;6.30;;
32333;SDS011;18810;53.040;8.850;2023-10-08T04:44:52;11.50;;;6.43;;
32333;SDS011;18810;53.040;8.850;2023-10-08T04:47:17;12.05;;;5.90;;
32333;SDS011;18810;53.040;8.850;2023-10-08T04:50:03;10.82;;;5.72;;
32333;SDS011;18810;53.040;8.850;2023-10-08T04:52:30;14.15;;;6.35;;
32333;SDS011;18810;53.040;8.850;2023-10-08T04:54:59;11.70;;;5.70;;
32333;SDS011;18810;53.040;8.850;2023-10-08T04:57:37;14.60;;;6.47;;
32333;SDS011;18810;53.040;8.850;2023-10-08T05:00:03;16.70;;;6.20;;
32333;SDS011;18810;53.040;8.850;2023-10-08T05:02:34;18.83;;;6.75;;
32333;SDS011;18810;53.040;8.850;2023-10-08T05:05:09;12.90;;;6.63;;
32333;SDS011;18810;53.040;8.850;2023-10-08T05:07:35;11.07;;;5.30;;
32333;SDS011;18810;53.040;8.850;2023-10-08T05:10:10;11.25;;;5.97;;
32333;SDS011;18810;53.040;8.850;2023-10-08T05:12:56;11.90;;;6.18;;
32333;SDS011;18810;53.040;8.850;2023-10-08T05:15:28;16.05;;;6.75;;
32333;SDS011;18810;53.040;8.850;2023-10-08T05:18:27;15.23;;;6.60;;
32333;SDS011;18810;53.040;8.850;2023-10-08T05:21:13;14.40;;;5.93;;
32333;SDS011;18810;53.040;8.850;2023-10-08T05:23:53;13.75;;;6.72;;
32333;SDS011;18810;53.040;8.850;2023-10-08T05:26:33;18.30;;;6.90;;
32333;SDS011;18810;53.040;8.850;2023-10-08T05:29:07;17.23;;;6.15;;
32333;SDS011;18810;53.040;8.850;2023-10-08T05:31:52;15.13;;;6.20;;
32333;SDS011;18810;53.040;8.850;2023-10-08T05:34:36;12.63;;;5.80;;
32333;SDS011;18810;53.040;8.850;2023-10-08T05:37:08;12.90;;;5.80;;
32333;SDS011;18810;53.040;8.850;2023-10-08T05:39:56;12.98;;;5.97;;
32333;SDS011;18810;53.040;8.850;2023-10-08T05:42:35;14.00;;;5.90;;
32333;SDS011;18810;53.040;8.850;2023-10-08T05:45:10;13.30;;;5.25;;
32333;SDS011;18810;53.040;8.850;2023-10-08T05:47:36;15.60;;;6.40;;
32333;SDS011;18810;53.040;8.850;2023-10-08T05:50:03;14.80;;;6.55;;
32333;SDS011;18810;53.040;8.850;2023-10-08T05:52:45;13.00;;;5.85;;
32333;SDS011;18810;53.040;8.850;2023-10-08T05:55:27;15.50;;;5.95;;
32333;SDS011;18810;53.040;8.850;2023-10-08T05:58:02;16.05;;;5.45;;
32333;SDS011;18810;53.040;8.850;2023-10-08T06:00:42;14.48;;;6.32;;
32333;SDS011;18810;53.040;8.850;2023-10-08T06:03:14;15.07;;;5.57;;
32333;SDS011;18810;53.040;8.850;2023-10-08T06:05:59;13.25;;;5.78;;
32333;SDS011;18810;53.040;8.850;2023-10-08T06:08:36;14.07;;;5.18;;
32333;SDS011;18810;53.040;8.850;2023-10-08T06:11:22;11.20;;;5.15;;
32333;SDS011;18810;53.040;8.850;2023-10-08T06:14:10;16.02;;;5.45;;
32333;SDS011;18810;53.040;8.850;2023-10-08T06:16:44;15.15;;;6.13;;
32333;SDS011;18810;53.040;8.850;2023-10-08T06:19:12;12.68;;;6.22;;
32333;SDS011;18810;53.040;8.850;2023-10-08T06:21:39;12.65;;;5.32;;
32333;SDS011;18810;53.040;8.850;2023-10-08T06:24:06;14.45;;;6.00;;
32333;SDS011;18810;53.040;8.850;2023-10-08T06:26:39;13.65;;;6.47;;
32333;SDS011;18810;53.040;8.850;2023-10-08T06:29:09;10.43;;;5.00;;
32333;SDS011;18810;53.040;8.850;2023-10-08T06:31:44;11.68;;;5.10;;
32333;SDS011;18810;53.040;8.850;2023-10-08T06:34:16;9.93;;;5.35;;
32333;SDS011;18810;53.040;8.850;2023-10-08T06:36:46;16.55;;;5.35;;
32333;SDS011;18810;53.040;8.850;2023-10-08T06:39:13;12.98;;;5.10;;
32333;SDS011;18810;53.040;8.850;2023-10-08T06:41:44;15.55;;;5.13;;
32333;SDS011;18810;53.040;8.850;2023-10-08T06:44:11;16.30;;;5.53;;
32333;SDS011;18810;53.040;8.850;2023-10-08T06:46:40;12.20;;;5.20;;
32333;SDS011;18810;53.040;8.850;2023-10-08T06:49:06;14.18;;;5.10;;
32333;SDS011;18810;53.040;8.850;2023-10-08T06:51:39;15.20;;;4.57;;
32333;SDS011;18810;53.040;8.850;2023-10-08T06:54:08;18.77;;;5.70;;
32333;SDS011;18810;53.040;8.850;2023-10-08T06:56:42;13.10;;;5.45;;
32333;SDS011;18810;53.040;8.850;2023-10-08T06:59:12;12.52;;;5.03;;
32333;SDS011;18810;53.040;8.850;2023-10-08T07:01:38;12.25;;;5.28;;
32333;SDS011;18810;53.040;8.850;2023-10-08T07:04:04;14.95;;;6.13;;
32333;SDS011;18810;53.040;8.850;2023-10-08T07:06:34;14.75;;;5.97;;
32333;SDS011;18810;53.040;8.850;2023-10-08T07:09:05;10.25;;;5.40;;
32333;SDS011;18810;53.040;8.850;2023-10-08T07:11:38;13.55;;;5.20;;
32333;SDS011;18810;53.040;8.850;2023-10-08T07:14:09;11.63;;;4.97;;
32333;SDS011;18810;53.040;8.850;2023-10-08T07:16:36;7.57;;;4.18;;
32333;SDS011;18810;53.040;8.850;2023-10-08T07:19:01;10.65;;;4.40;;
32333;SDS011;18810;53.040;8.850;2023-10-08T07:21:30;8.57;;;4.93;;
32333;SDS011;18810;53.040;8.850;2023-10-08T07:24:09;9.45;;;4.10;;
32333;SDS011;18810;53.040;8.850;2023-10-08T07:29:11;11.98;;;4.28;;
32333;SDS011;18810;53.040;8.850;2023-10-08T07:31:38;10.38;;;4.05;;
32333;SDS011;18810;53.040;8.850;2023-10-08T07:34:08;12.45;;;4.88;;
32333;SDS011;18810;53.040;8.850;2023-10-08T07:36:47;9.98;;;3.72;;
32333;SDS011;18810;53.040;8.850;2023-10-08T07:42:05;8.82;;;4.47;;
32333;SDS011;18810;53.040;8.850;2023-10-08T07:44:31;11.18;;;4.40;;
32333;SDS011;18810;53.040;8.850;2023-10-08T07:46:57;7.45;;;3.92;;
32333;SDS011;18810;53.040;8.850;2023-10-08T07:49:23;8.02;;;3.85;;
32333;SDS011;18810;53.040;8.850;2023-10-08T07:51:56;8.27;;;3.90;;
32333;SDS011;18810;53.040;8.850;2023-10-08T07:54:24;6.75;;;3.28;;
32333;SDS011;18810;53.040;8.850;2023-10-08T07:56:53;11.57;;;4.40;;
32333;SDS011;18810;53.040;8.850;2023-10-08T07:59:33;11.40;;;4.88;;
32333;SDS011;18810;53.040;8.850;2023-10-08T08:02:12;10.50;;;4.25;;
32333;SDS011;18810;53.040;8.850;2023-10-08T08:04:39;8.10;;;3.60;;
32333;SDS011;18810;53.040;8.850;2023-10-08T08:07:08;8.38;;;3.38;;
32333;SDS011;18810;53.040;8.850;2023-10-08T08:09:41;6.35;;;3.25;;
32333;SDS011;18810;53.040;8.850;2023-10-08T08:12:20;10.57;;;3.50;;
32333;SDS011;18810;53.040;8.850;2023-10-08T08:14:46;11.90;;;3.50;;
32333;SDS011;18810;53.040;8.850;2023-10-08T08:17:13;7.00;;;3.30;;
32333;SDS011;18810;53.040;8.850;2023-10-08T08:19:43;5.07;;;3.03;;
32333;SDS011;18810;53.040;8.850;2023-10-08T08:22:12;8.80;;;4.20;;
32333;SDS011;18810;53.040;8.850;2023-10-08T08:24:46;7.60;;;3.45;;
32333;SDS011;18810;53.040;8.850;2023-10-08T08:27:20;9.23;;;3.53;;
32333;SDS011;18810;53.040;8.850;2023-10-08T08:29:56;7.75;;;3.25;;
32333;SDS011;18810;53.040;8.850;2023-10-08T08:32:35;5.55;;;2.75;;
32333;SDS011;18810;53.040;8.850;2023-10-08T08:35:07;6.05;;;2.83;;
32333;SDS011;18810;53.040;8.850;2023-10-08T08:37:37;7.65;;;2.88;;
32333;SDS011;18810;53.040;8.850;2023-10-08T08:40:04;6.95;;;2.78;;
32333;SDS011;18810;53.040;8.850;2023-10-08T08:42:46;9.07;;;3.33;;
32333;SDS011;18810;53.040;8.850;2023-10-08T08:45:15;6.65;;;2.90;;
32333;SDS011;18810;53.040;8.850;2023-10-08T08:47:45;5.00;;;2.20;;
32333;SDS011;18810;53.040;8.850;2023-10-08T08:50:11;11.27;;;2.22;;
32333;SDS011;18810;53.040;8.850;2023-10-08T08:52:40;9.20;;;2.60;;
32333;SDS011;18810;53.040;8.850;2023-10-08T08:55:06;6.47;;;1.95;;
32333;SDS011;18810;53.040;8.850;2023-10-08T08:57:41;4.95;;;1.92;;
32333;SDS011;18810;53.040;8.850;2023-10-08T09:00:08;6.18;;;1.98;;
32333;SDS011;18810;53.040;8.850;2023-10-08T09:02:37;6.03;;;1.92;;
32333;SDS011;18810;53.040;8.850;2023-10-08T09:05:03;8.85;;;2.13;;
32333;SDS011;18810;53.040;8.850;2023-10-08T09:07:59;4.75;;;1.92;;
32333;SDS011;18810;53.040;8.850;2023-10-08T09:10:29;7.03;;;2.03;;
32333;SDS011;18810;53.040;8.850;2023-10-08T09:12:58;7.00;;;1.80;;
32333;SDS011;18810;53.040;8.850;2023-10-08T09:15:24;7.75;;;2.15;;
32333;SDS011;18810;53.040;8.850;2023-10-08T09:17:54;7.75;;;2.30;;
32333;SDS011;18810;53.040;8.850;2023-10-08T09:20:21;6.28;;;1.70;;
32333;SDS011;18810;53.040;8.850;2023-10-08T09:25:32;6.18;;;2.35;;
32333;SDS011;18810;53.040;8.850;2023-10-08T09:27:58;9.02;;;2.20;;
32333;SDS011;18810;53.040;8.850;2023-10-08T09:30:24;8.18;;;2.20;;
32333;SDS011;18810;53.040;8.850;2023-10-08T09:32:51;8.50;;;2.45;;
32333;SDS011;18810;53.040;8.850;2023-10-08T09:35:17;8.50;;;1.90;;
32333;SDS011;18810;53.040;8.850;2023-10-08T09:37:44;5.43;;;2.25;;
32333;SDS011;18810;53.040;8.850;2023-10-08T09:40:10;9.25;;;2.05;;
32333;SDS011;18810;53.040;8.850;2023-10-08T09:42:37;10.93;;;2.17;;
32333;SDS011;18810;53.040;8.850;2023-10-08T09:45:04;10.45;;;1.92;;
32333;SDS011;18810;53.040;8.850;2023-10-08T09:47:34;8.85;;;1.95;;
32333;SDS011;18810;53.040;8.850;2023-10-08T09:50:04;9.23;;;1.98;;
32333;SDS011;18810;53.040;8.850;2023-10-08T09:52:38;8.80;;;1.92;;
32333;SDS011;18810;53.040;8.850;2023-10-08T09:55:10;5.03;;;1.95;;
32333;SDS011;18810;53.040;8.850;2023-10-08T09:57:36;5.35;;;1.80;;
32333;SDS011;18810;53.040;8.850;2023-10-08T10:00:02;5.15;;;1.77;;
32333;SDS011;18810;53.040;8.850;2023-10-08T10:02:32;3.45;;;1.50;;
32333;SDS011;18810;53.040;8.850;2023-10-08T10:04:59;8.55;;;2.50;;
32333;SDS011;18810;53.040;8.850;2023-10-08T10:07:26;6.75;;;1.48;;
32333;SDS011;18810;53.040;8.850;2023-10-08T10:09:53;8.38;;;1.92;;
32333;SDS011;18810;53.040;8.850;2023-10-08T10:12:20;6.28;;;1.67;;
32333;SDS011;18810;53.040;8.850;2023-10-08T10:14:52;9.15;;;1.85;;
32333;SDS011;18810;53.040;8.850;2023-10-08T10:19:54;7.10;;;2.10;;
32333;SDS011;18810;53.040;8.850;2023-10-08T10:22:27;5.55;;;1.80;;
32333;SDS011;18810;53.040;8.850;2023-10-08T10:24:54;9.65;;;1.80;;
32333;SDS011;18810;53.040;8.850;2023-10-08T10:27:21;5.03;;;1.65;;
32333;SDS011;18810;53.040;8.850;2023-10-08T10:29:47;4.07;;;1.50;;
32333;SDS011;18810;53.040;8.850;2023-10-08T10:32:13;5.53;;;1.60;;
32333;SDS011;18810;53.040;8.850;2023-10-08T10:34:41;4.72;;;1.85;;
32333;SDS011;18810;53.040;8.850;2023-10-08T10:37:07;7.32;;;2.85;;
32333;SDS011;18810;53.040;8.850;2023-10-08T10:39:34;13.52;;;4.75;;
32333;SDS011;18810;53.040;8.850;2023-10-08T10:42:05;8.00;;;3.72;;
32333;SDS011;18810;53.040;8.850;2023-10-08T10:44:43;8.00;;;2.25;;
32333;SDS011;18810;53.040;8.850;2023-10-08T10:47:09;2.90;;;1.40;;
32333;SDS011;18810;53.040;8.850;2023-10-08T10:49:44;3.38;;;1.50;;
32333;SDS011;18810;53.040;8.850;2023-10-08T10:52:28;6.13;;;1.92;;
32333;SDS011;18810;53.040;8.850;2023-10-08T10:55:01;5.28;;;1.80;;
32333;SDS011;18810;53.040;8.850;2023-10-08T10:57:40;7.03;;;1.70;;
32333;SDS011;18810;53.040;8.850;2023-10-08T11:00:07;5.85;;;1.80;;
32333;SDS011;18810;53.040;8.850;2023-10-08T11:02:52;6.97;;;1.60;;
32333;SDS011;18810;53.040;8.850;2023-10-08T11:05:24;4.18;;;1.60;;
32333;SDS011;18810;53.040;8.850;2023-10-08T11:08:03;7.60;;;2.13;;
32333;SDS011;18810;53.040;8.850;2023-10-08T11:10:34;5.78;;;1.63;;
32333;SDS011;18810;53.040;8.850;2023-10-08T11:13:05;3.92;;;1.63;;
32333;SDS011;18810;53.040;8.850;2023-10-08T11:15:39;4.63;;;1.65;;
32333;SDS011;18810;53.040;8.850;2023-10-08T11:18:12;4.95;;;2.08;;
32333;SDS011;18810;53.040;8.850;2023-10-08T11:20:42;5.25;;;2.25;;
32333;SDS011;18810;53.040;8.850;2023-10-08T11:23:34;7.15;;;2.40;;
32333;SDS011;18810;53.040;8.850;2023-10-08T11:26:01;7.95;;;1.98;;
32333;SDS011;18810;53.040;8.850;2023-10-08T11:30:59;6.18;;;2.40;;
32333;SDS011;18810;53.040;8.850;2023-10-08T11:33:36;7.28;;;1.80;;
32333;SDS011;18810;53.040;8.850;2023-10-08T11:36:04;8.15;;;2.00;;
32333;SDS011;18810;53.040;8.850;2023-10-08T11:38:52;5.32;;;2.10;;
32333;SDS011;18810;53.040;8.850;2023-10-08T11:41:26;4.13;;;1.50;;
32333;SDS011;18810;53.040;8.850;2023-10-08T11:43:56;8.98;;;2.25;;
32333;SDS011;18810;53.040;8.850;2023-10-08T11:46:24;5.53;;;1.80;;
32333;SDS011;18810;53.040;8.850;2023-10-08T11:48:51;7.90;;;2.03;;
32333;SDS011;18810;53.040;8.850;2023-10-08T11:51:17;6.85;;;1.80;;
32333;SDS011;18810;53.040;8.850;2023-10-08T11:53:43;7.05;;;1.67;;
32333;SDS011;18810;53.040;8.850;2023-10-08T11:56:10;4.90;;;1.83;;
32333;SDS011;18810;53.040;8.850;2023-10-08T11:58:41;4.85;;;1.95;;
32333;SDS011;18810;53.040;8.850;2023-10-08T12:01:12;3.85;;;1.80;;
32333;SDS011;18810;53.040;8.850;2023-10-08T12:03:41;7.82;;;1.70;;
32333;SDS011;18810;53.040;8.850;2023-10-08T12:06:09;5.70;;;1.83;;
32333;SDS011;18810;53.040;8.850;2023-10-08T12:08:43;5.38;;;1.75;;
32333;SDS011;18810;53.040;8.850;2023-10-08T12:11:18;5.93;;;1.50;;
32333;SDS011;18810;53.040;8.850;2023-10-08T12:13:48;7.88;;;1.92;;
32333;SDS011;18810;53.040;8.850;2023-10-08T12:16:15;6.85;;;1.90;;
32333;SDS011;18810;53.040;8.850;2023-10-08T12:18:46;4.13;;;1.75;;
32333;SDS011;18810;53.040;8.850;2023-10-08T12:21:23;6.97;;;2.17;;
32333;SDS011;18810;53.040;8.850;2023-10-08T12:23:59;5.60;;;2.08;;
32333;SDS011;18810;53.040;8.850;2023-10-08T12:26:26;7.75;;;1.83;;
32333;SDS011;18810;53.040;8.850;2023-10-08T12:28:52;6.18;;;1.80;;
32333;SDS011;18810;53.040;8.850;2023-10-08T12:31:19;6.35;;;1.40;;
32333;SDS011;18810;53.040;8.850;2023-10-08T12:33:49;4.78;;;2.00;;
32333;SDS011;18810;53.040;8.850;2023-10-08T12:36:28;4.60;;;1.75;;
32333;SDS011;18810;53.040;8.850;2023-10-08T12:38:58;4.50;;;1.73;;
32333;SDS011;18810;53.040;8.850;2023-10-08T12:41:25;5.75;;;1.77;;
32333;SDS011;18810;53.040;8.850;2023-10-08T12:43:53;6.47;;;1.98;;
32333;SDS011;18810;53.040;8.850;2023-10-08T12:46:20;6.35;;;1.90;;
32333;SDS011;18810;53.040;8.850;2023-10-08T12:48:49;6.85;;;1.90;;
32333;SDS011;18810;53.040;8.850;2023-10-08T12:51:23;6.93;;;1.90;;
32333;SDS011;18810;53.040;8.850;2023-10-08T12:53:50;5.95;;;1.85;;
32333;SDS011;18810;53.040;8.850;2023-10-08T12:56:23;4.63;;;1.95;;
32333;SDS011;18810;53.040;8.850;2023-10-08T12:58:56;6.07;;;1.80;;
32333;SDS011;18810;53.040;8.850;2023-10-08T13:01:23;5.25;;;1.73;;
32333;SDS011;18810;53.040;8.850;2023-10-08T13:03:49;5.20;;;1.83;;
32333;SDS011;18810;53.040;8.850;2023-10-08T13:06:15;4.50;;;1.70;;
32333;SDS011;18810;53.040;8.850;2023-10-08T13:08:57;5.28;;;1.65;;
32333;SDS011;18810;53.040;8.850;2023-10-08T13:11:24;6.85;;;1.73;;
32333;SDS011;18810;53.040;8.850;2023-10-08T13:13:51;4.90;;;2.13;;
32333;SDS011;18810;53.040;8.850;2023-10-08T13:16:22;7.97;;;1.83;;
32333;SDS011;18810;53.040;8.850;2023-10-08T13:18:49;7.90;;;2.10;;
32333;SDS011;18810;53.040;8.850;2023-10-08T13:21:15;6.60;;;1.70;;
32333;SDS011;18810;53.040;8.850;2023-10-08T13:23:41;8.40;;;2.10;;
32333;SDS011;18810;53.040;8.850;2023-10-08T13:26:07;6.70;;;1.92;;
32333;SDS011;18810;53.040;8.850;2023-10-08T13:28:36;5.22;;;1.83;;
32333;SDS011;18810;53.040;8.850;2023-10-08T13:31:05;7.15;;;1.75;;
32333;SDS011;18810;53.040;8.850;2023-10-08T13:33:37;6.03;;;1.90;;
32333;SDS011;18810;53.040;8.850;2023-10-08T13:36:14;9.55;;;2.40;;
32333;SDS011;18810;53.040;8.850;2023-10-08T13:38:40;5.95;;;2.08;;
32333;SDS011;18810;53.040;8.850;2023-10-08T13:41:07;6.72;;;1.92;;
32333;SDS011;18810;53.040;8.850;2023-10-08T13:43:43;7.70;;;2.25;;
32333;SDS011;18810;53.040;8.850;2023-10-08T13:46:17;5.10;;;1.73;;
32333;SDS011;18810;53.040;8.850;2023-10-08T13:48:45;3.30;;;2.00;;
32333;SDS011;18810;53.040;8.850;2023-10-08T13:51:13;6.13;;;1.95;;
32333;SDS011;18810;53.040;8.850;2023-10-08T13:53:48;5.50;;;1.75;;
32333;SDS011;18810;53.040;8.850;2023-10-08T13:56:31;7.00;;;2.20;;
32333;SDS011;18810;53.040;8.850;2023-10-08T13:58:58;5.45;;;1.77;;
32333;SDS011;18810;53.040;8.850;2023-10-08T14:01:40;6.90;;;2.10;;
32333;SDS011;18810;53.040;8.850;2023-10-08T14:04:08;5.65;;;1.98;;
32333;SDS011;18810;53.040;8.850;2023-10-08T14:06:34;7.15;;;2.25;;
32333;SDS011;18810;53.040;8.850;2023-10-08T14:09:02;6.03;;;2.10;;
32333;SDS011;18810;53.040;8.850;2023-10-08T14:13:58;5.70;;;2.03;;
32333;SDS011;18810;53.040;8.850;2023-10-08T14:16:27;8.85;;;2.30;;
32333;SDS011;18810;53.040;8.850;2023-10-08T14:18:57;9.85;;;2.35;;
32333;SDS011;18810;53.040;8.850;2023-10-08T14:23:55;7.03;;;2.00;;
32333;SDS011;18810;53.040;8.850;2023-10-08T14:26:27;7.20;;;2.00;;
32333;SDS011;18810;53.040;8.850;2023-10-08T14:29:03;6.95;;;1.88;;
32333;SDS011;18810;53.040;8.850;2023-10-08T14:31:42;7.80;;;2.38;;
32333;SDS011;18810;53.040;8.850;2023-10-08T14:34:09;6.97;;;1.88;;
32333;SDS011;18810;53.040;8.850;2023-10-08T14:36:41;5.00;;;1.70;;
32333;SDS011;18810;53.040;8.850;2023-10-08T14:39:26;3.42;;;1.75;;
32333;SDS011;18810;53.040;8.850;2023-10-08T14:42:10;6.15;;;1.90;;
32333;SDS011;18810;53.040;8.850;2023-10-08T14:44:54;5.22;;;1.95;;
32333;SDS011;18810;53.040;8.850;2023-10-08T14:47:19;3.88;;;2.08;;
32333;SDS011;18810;53.040;8.850;2023-10-08T14:49:45;5.30;;;1.60;;
32333;SDS011;18810;53.040;8.850;2023-10-08T14:52:11;6.22;;;2.10;;
32333;SDS011;18810;53.040;8.850;2023-10-08T14:54:37;6.43;;;2.00;;
32333;SDS011;18810;53.040;8.850;2023-10-08T14:57:03;6.75;;;1.95;;
32333;SDS011;18810;53.040;8.850;2023-10-08T14:59:30;5.35;;;2.15;;
32333;SDS011;18810;53.040;8.850;2023-10-08T15:01:57;5.95;;;1.75;;
32333;SDS011;18810;53.040;8.850;2023-10-08T15:04:26;9.65;;;1.92;;
32333;SDS011;18810;53.040;8.850;2023-10-08T15:06:53;4.97;;;2.00;;
32333;SDS011;18810;53.040;8.850;2023-10-08T15:09:22;6.15;;;1.92;;
32333;SDS011;18810;53.040;8.850;2023-10-08T15:11:49;5.80;;;2.20;;
32333;SDS011;18810;53.040;8.850;2023-10-08T15:14:19;5.40;;;2.50;;
32333;SDS011;18810;53.040;8.850;2023-10-08T15:16:45;6.13;;;2.00;;
32333;SDS011;18810;53.040;8.850;2023-10-08T15:19:17;6.75;;;1.88;;
32333;SDS011;18810;53.040;8.850;2023-10-08T15:21:50;4.65;;;2.03;;
32333;SDS011;18810;53.040;8.850;2023-10-08T15:24:17;3.80;;;1.80;;
32333;SDS011;18810;53.040;8.850;2023-10-08T15:26:50;5.97;;;2.05;;
32333;SDS011;18810;53.040;8.850;2023-10-08T15:29:21;7.90;;;2.42;;
32333;SDS011;18810;53.040;8.850;2023-10-08T15:31:51;4.22;;;1.92;;
32333;SDS011;18810;53.040;8.850;2023-10-08T15:34:20;5.18;;;2.13;;